sensor_id;sensor_type;location;lat;lon;timestamp;temperature;humidity
73509;SHT30;61750;55.036;73.312;2022-09-09T00:02:22;7.71;81.49
73509;SHT30;61750;55.036;73.312;2022-09-09T00:05:44;7.79;81.05
73509;SHT30;61750;55.036;73.312;2022-09-09T00:07:49;7.81;80.57
73509;SHT30;61750;55.036;73.312;2022-09-09T00:10:39;7.85;80.76
73509;SHT30;61750;55.036;73.312;2022-09-09T00:13:27;7.83;79.71
73509;SHT30;61750;55.036;73.312;2022-09-09T00:16:15;7.86;79.49
73509;SHT30;61750;55.036;73.312;2022-09-09T00:20:16;7.81;79.68
73509;SHT30;61750;55.036;73.312;2022-09-09T00:22:23;7.76;79.28
73509;SHT30;61750;55.036;73.312;2022-09-09T00:24:55;7.72;79.58
73509;SHT30;61750;55.036;73.312;2022-09-09T00:27:40;7.62;80.04
73509;SHT30;61750;55.036;73.312;2022-09-09T00:30:15;7.52;80.45
73509;SHT30;61750;55.036;73.312;2022-09-09T00:32:44;7.43;80.73
73509;SHT30;61750;55.036;73.312;2022-09-09T00:35:24;7.35;80.94
73509;SHT30;61750;55.036;73.312;2022-09-09T00:37:54;7.23;81.35
73509;SHT30;61750;55.036;73.312;2022-09-09T00:43:31;7.01;82.53
73509;SHT30;61750;55.036;73.312;2022-09-09T00:51:44;6.80;82.57
73509;SHT30;61750;55.036;73.312;2022-09-09T00:54:27;6.66;82.59
73509;SHT30;61750;55.036;73.312;2022-09-09T00:57:14;6.54;82.99
73509;SHT30;61750;55.036;73.312;2022-09-09T00:59:51;6.42;83.32
73509;SHT30;61750;55.036;73.312;2022-09-09T01:02:25;6.28;83.43
73509;SHT30;61750;55.036;73.312;2022-09-09T01:05:00;6.12;84.07
73509;SHT30;61750;55.036;73.312;2022-09-09T01:07:27;6.02;84.26
73509;SHT30;61750;55.036;73.312;2022-09-09T01:10:11;5.99;84.64
73509;SHT30;61750;55.036;73.312;2022-09-09T01:12:42;5.98;84.71
73509;SHT30;61750;55.036;73.312;2022-09-09T01:15:27;6.04;85.60
73509;SHT30;61750;55.036;73.312;2022-09-09T01:20:47;6.16;85.58
73509;SHT30;61750;55.036;73.312;2022-09-09T01:23:48;6.28;85.62
73509;SHT30;61750;55.036;73.312;2022-09-09T01:26:42;6.36;85.49
73509;SHT30;61750;55.036;73.312;2022-09-09T01:29:25;6.60;85.63
73509;SHT30;61750;55.036;73.312;2022-09-09T01:31:57;6.87;85.44
73509;SHT30;61750;55.036;73.312;2022-09-09T01:34:36;7.15;84.93
73509;SHT30;61750;55.036;73.312;2022-09-09T01:37:09;7.47;84.59
73509;SHT30;61750;55.036;73.312;2022-09-09T01:39:39;7.62;84.13
73509;SHT30;61750;55.036;73.312;2022-09-09T01:42:15;7.78;83.99
73509;SHT30;61750;55.036;73.312;2022-09-09T01:44:42;7.88;83.59
73509;SHT30;61750;55.036;73.312;2022-09-09T01:47:09;7.99;83.48
73509;SHT30;61750;55.036;73.312;2022-09-09T01:49:48;8.13;82.92
73509;SHT30;61750;55.036;73.312;2022-09-09T01:52:26;8.29;80.13
73509;SHT30;61750;55.036;73.312;2022-09-09T01:54:53;8.49;78.63
73509;SHT30;61750;55.036;73.312;2022-09-09T01:57:31;8.67;78.27
73509;SHT30;61750;55.036;73.312;2022-09-09T02:00:11;8.75;77.75
73509;SHT30;61750;55.036;73.312;2022-09-09T02:03:17;8.84;76.79
73509;SHT30;61750;55.036;73.312;2022-09-09T02:09:26;9.01;76.60
73509;SHT30;61750;55.036;73.312;2022-09-09T02:12:21;9.10;75.33
73509;SHT30;61750;55.036;73.312;2022-09-09T02:15:04;9.17;75.46
73509;SHT30;61750;55.036;73.312;2022-09-09T02:17:55;9.24;75.24
73509;SHT30;61750;55.036;73.312;2022-09-09T02:20:31;9.22;73.95
73509;SHT30;61750;55.036;73.312;2022-09-09T02:23:01;9.22;72.80
73509;SHT30;61750;55.036;73.312;2022-09-09T02:25:36;9.15;72.61
73509;SHT30;61750;55.036;73.312;2022-09-09T02:28:14;9.07;72.39
73509;SHT30;61750;55.036;73.312;2022-09-09T02:30:42;9.04;73.11
73509;SHT30;61750;55.036;73.312;2022-09-09T02:33:11;9.07;73.02
73509;SHT30;61750;55.036;73.312;2022-09-09T02:35:45;9.05;73.60
73509;SHT30;61750;55.036;73.312;2022-09-09T02:38:17;9.17;73.87
73509;SHT30;61750;55.036;73.312;2022-09-09T02:40:59;9.32;74.34
73509;SHT30;61750;55.036;73.312;2022-09-09T02:43:31;9.48;74.54
73509;SHT30;61750;55.036;73.312;2022-09-09T02:58:03;10.53;67.81
73509;SHT30;61750;55.036;73.312;2022-09-09T03:00:48;10.68;67.17
73509;SHT30;61750;55.036;73.312;2022-09-09T03:03:25;10.87;67.99
73509;SHT30;61750;55.036;73.312;2022-09-09T03:05:52;11.01;66.43
73509;SHT30;61750;55.036;73.312;2022-09-09T03:08:18;11.14;67.09
73509;SHT30;61750;55.036;73.312;2022-09-09T03:10:44;11.29;67.30
73509;SHT30;61750;55.036;73.312;2022-09-09T03:13:24;11.33;67.82
73509;SHT30;61750;55.036;73.312;2022-09-09T03:15:55;11.36;67.10
73509;SHT30;61750;55.036;73.312;2022-09-09T03:18:22;11.49;67.37
73509;SHT30;61750;55.036;73.312;2022-09-09T03:20:52;11.55;66.48
73509;SHT30;61750;55.036;73.312;2022-09-09T03:23:25;11.69;65.72
73509;SHT30;61750;55.036;73.312;2022-09-09T03:25:51;11.86;66.19
73509;SHT30;61750;55.036;73.312;2022-09-09T03:28:24;12.03;65.78
73509;SHT30;61750;55.036;73.312;2022-09-09T03:31:08;12.20;64.24
73509;SHT30;61750;55.036;73.312;2022-09-09T03:33:39;12.37;65.21
73509;SHT30;61750;55.036;73.312;2022-09-09T03:36:14;12.41;61.83
73509;SHT30;61750;55.036;73.312;2022-09-09T03:39:25;12.61;62.97
73509;SHT30;61750;55.036;73.312;2022-09-09T03:41:51;12.68;62.96
73509;SHT30;61750;55.036;73.312;2022-09-09T03:44:18;12.84;63.39
73509;SHT30;61750;55.036;73.312;2022-09-09T03:46:44;13.01;59.58
73509;SHT30;61750;55.036;73.312;2022-09-09T03:49:24;13.16;61.44
73509;SHT30;61750;55.036;73.312;2022-09-09T03:51:51;13.32;60.23
73509;SHT30;61750;55.036;73.312;2022-09-09T03:54:24;13.52;60.18
73509;SHT30;61750;55.036;73.312;2022-09-09T03:56:51;13.60;58.46
73509;SHT30;61750;55.036;73.312;2022-09-09T03:59:24;13.67;58.77
73509;SHT30;61750;55.036;73.312;2022-09-09T04:01:51;13.77;61.84
73509;SHT30;61750;55.036;73.312;2022-09-09T04:04:25;13.74;58.17
73509;SHT30;61750;55.036;73.312;2022-09-09T04:06:53;13.86;60.53
73509;SHT30;61750;55.036;73.312;2022-09-09T04:09:24;13.84;59.75
73509;SHT30;61750;55.036;73.312;2022-09-09T04:11:51;13.94;60.49
73509;SHT30;61750;55.036;73.312;2022-09-09T04:14:19;13.97;58.75
73509;SHT30;61750;55.036;73.312;2022-09-09T04:16:46;14.17;59.54
73509;SHT30;61750;55.036;73.312;2022-09-09T04:19:24;14.42;58.71
73509;SHT30;61750;55.036;73.312;2022-09-09T04:21:51;14.44;57.67
73509;SHT30;61750;55.036;73.312;2022-09-09T04:24:24;14.44;57.84
73509;SHT30;61750;55.036;73.312;2022-09-09T04:26:54;14.54;57.45
73509;SHT30;61750;55.036;73.312;2022-09-09T04:29:24;14.78;58.35
73509;SHT30;61750;55.036;73.312;2022-09-09T04:31:51;15.06;55.25
73509;SHT30;61750;55.036;73.312;2022-09-09T04:34:24;15.22;50.55
73509;SHT30;61750;55.036;73.312;2022-09-09T04:37:03;15.33;51.79
73509;SHT30;61750;55.036;73.312;2022-09-09T04:39:30;15.47;49.89
73509;SHT30;61750;55.036;73.312;2022-09-09T04:41:57;15.53;50.72
73509;SHT30;61750;55.036;73.312;2022-09-09T04:44:25;15.83;52.47
73509;SHT30;61750;55.036;73.312;2022-09-09T04:46:51;16.02;50.01
73509;SHT30;61750;55.036;73.312;2022-09-09T04:49:24;16.20;49.35
73509;SHT30;61750;55.036;73.312;2022-09-09T04:51:51;16.41;49.29
73509;SHT30;61750;55.036;73.312;2022-09-09T04:54:24;16.66;48.85
73509;SHT30;61750;55.036;73.312;2022-09-09T04:56:51;17.07;49.81
73509;SHT30;61750;55.036;73.312;2022-09-09T04:59:24;17.13;45.15
73509;SHT30;61750;55.036;73.312;2022-09-09T05:01:55;16.95;46.36
73509;SHT30;61750;55.036;73.312;2022-09-09T05:04:24;16.73;47.23
73509;SHT30;61750;55.036;73.312;2022-09-09T05:06:51;16.52;46.93
73509;SHT30;61750;55.036;73.312;2022-09-09T05:09:24;16.24;47.68
73509;SHT30;61750;55.036;73.312;2022-09-09T05:11:51;16.25;48.68
73509;SHT30;61750;55.036;73.312;2022-09-09T05:14:29;16.28;49.63
73509;SHT30;61750;55.036;73.312;2022-09-09T05:16:56;16.15;51.02
73509;SHT30;61750;55.036;73.312;2022-09-09T05:19:24;16.01;51.06
73509;SHT30;61750;55.036;73.312;2022-09-09T05:21:52;15.91;50.28
73509;SHT30;61750;55.036;73.312;2022-09-09T05:24:24;15.78;49.95
73509;SHT30;61750;55.036;73.312;2022-09-09T05:26:53;15.76;49.74
73509;SHT30;61750;55.036;73.312;2022-09-09T05:29:24;15.73;49.84
73509;SHT30;61750;55.036;73.312;2022-09-09T05:31:51;15.66;49.99
73509;SHT30;61750;55.036;73.312;2022-09-09T05:34:24;15.66;50.90
73509;SHT30;61750;55.036;73.312;2022-09-09T05:36:51;15.61;49.81
73509;SHT30;61750;55.036;73.312;2022-09-09T05:39:24;15.57;48.59
73509;SHT30;61750;55.036;73.312;2022-09-09T05:42:01;15.76;50.57
73509;SHT30;61750;55.036;73.312;2022-09-09T05:44:38;16.02;51.21
73509;SHT30;61750;55.036;73.312;2022-09-09T05:47:05;15.97;49.32
73509;SHT30;61750;55.036;73.312;2022-09-09T05:49:31;15.93;49.01
73509;SHT30;61750;55.036;73.312;2022-09-09T05:52:04;15.68;49.08
73509;SHT30;61750;55.036;73.312;2022-09-09T05:54:30;15.43;49.12
73509;SHT30;61750;55.036;73.312;2022-09-09T05:56:56;15.29;51.30
73509;SHT30;61750;55.036;73.312;2022-09-09T05:59:24;15.26;50.98
73509;SHT30;61750;55.036;73.312;2022-09-09T06:01:53;15.29;49.70
73509;SHT30;61750;55.036;73.312;2022-09-09T06:04:30;15.34;48.36
73509;SHT30;61750;55.036;73.312;2022-09-09T06:06:58;15.43;48.35
73509;SHT30;61750;55.036;73.312;2022-09-09T06:09:24;15.37;52.13
73509;SHT30;61750;55.036;73.312;2022-09-09T06:12:01;15.54;53.02
73509;SHT30;61750;55.036;73.312;2022-09-09T06:14:31;15.74;50.61
73509;SHT30;61750;55.036;73.312;2022-09-09T06:16:59;16.11;53.98
73509;SHT30;61750;55.036;73.312;2022-09-09T06:19:28;16.56;47.68
73509;SHT30;61750;55.036;73.312;2022-09-09T06:21:58;16.62;46.49
73509;SHT30;61750;55.036;73.312;2022-09-09T06:24:26;16.65;48.65
73509;SHT30;61750;55.036;73.312;2022-09-09T06:26:52;16.41;48.57
73509;SHT30;61750;55.036;73.312;2022-09-09T06:29:28;16.42;48.44
73509;SHT30;61750;55.036;73.312;2022-09-09T06:31:54;16.44;49.05
73509;SHT30;61750;55.036;73.312;2022-09-09T06:34:24;16.48;48.93
73509;SHT30;61750;55.036;73.312;2022-09-09T06:37:04;16.45;47.70
73509;SHT30;61750;55.036;73.312;2022-09-09T06:39:37;16.52;49.06
73509;SHT30;61750;55.036;73.312;2022-09-09T06:42:03;16.80;46.20
73509;SHT30;61750;55.036;73.312;2022-09-09T06:44:56;16.79;45.90
73509;SHT30;61750;55.036;73.312;2022-09-09T06:47:54;16.96;47.96
73509;SHT30;61750;55.036;73.312;2022-09-09T06:50:22;17.15;46.20
73509;SHT30;61750;55.036;73.312;2022-09-09T06:52:49;17.55;45.32
73509;SHT30;61750;55.036;73.312;2022-09-09T06:55:15;17.88;42.83
73509;SHT30;61750;55.036;73.312;2022-09-09T06:57:49;18.53;44.26
73509;SHT30;61750;55.036;73.312;2022-09-09T07:00:21;18.66;43.44
73509;SHT30;61750;55.036;73.312;2022-09-09T07:02:47;18.38;43.86
73509;SHT30;61750;55.036;73.312;2022-09-09T07:05:14;18.21;42.68
73509;SHT30;61750;55.036;73.312;2022-09-09T07:07:42;18.31;45.77
73509;SHT30;61750;55.036;73.312;2022-09-09T07:10:11;18.53;41.68
73509;SHT30;61750;55.036;73.312;2022-09-09T07:12:37;18.90;41.43
73509;SHT30;61750;55.036;73.312;2022-09-09T07:15:04;19.32;39.56
73509;SHT30;61750;55.036;73.312;2022-09-09T07:17:30;19.38;42.11
73509;SHT30;61750;55.036;73.312;2022-09-09T07:19:58;19.40;40.18
73509;SHT30;61750;55.036;73.312;2022-09-09T07:22:27;19.20;40.65
73509;SHT30;61750;55.036;73.312;2022-09-09T07:24:54;19.18;41.21
73509;SHT30;61750;55.036;73.312;2022-09-09T07:27:20;19.10;40.83
73509;SHT30;61750;55.036;73.312;2022-09-09T07:29:48;18.99;38.76
73509;SHT30;61750;55.036;73.312;2022-09-09T07:32:14;18.79;39.07
73509;SHT30;61750;55.036;73.312;2022-09-09T07:34:41;18.69;39.69
73509;SHT30;61750;55.036;73.312;2022-09-09T07:37:07;18.56;39.90
73509;SHT30;61750;55.036;73.312;2022-09-09T07:39:35;18.70;39.70
73509;SHT30;61750;55.036;73.312;2022-09-09T07:42:02;18.83;41.74
73509;SHT30;61750;55.036;73.312;2022-09-09T07:44:28;19.14;40.11
73509;SHT30;61750;55.036;73.312;2022-09-09T07:47:05;19.38;39.79
73509;SHT30;61750;55.036;73.312;2022-09-09T07:49:49;19.58;39.86
73509;SHT30;61750;55.036;73.312;2022-09-09T07:52:21;20.01;38.65
73509;SHT30;61750;55.036;73.312;2022-09-09T07:54:52;20.13;40.17
73509;SHT30;61750;55.036;73.312;2022-09-09T07:57:18;20.15;37.65
73509;SHT30;61750;55.036;73.312;2022-09-09T07:59:47;20.25;35.55
73509;SHT30;61750;55.036;73.312;2022-09-09T08:02:14;20.30;36.65
73509;SHT30;61750;55.036;73.312;2022-09-09T08:04:41;20.43;36.88
73509;SHT30;61750;55.036;73.312;2022-09-09T08:07:09;20.57;36.00
73509;SHT30;61750;55.036;73.312;2022-09-09T08:09:45;20.47;35.42
73509;SHT30;61750;55.036;73.312;2022-09-09T08:12:19;20.16;34.48
73509;SHT30;61750;55.036;73.312;2022-09-09T08:14:45;20.18;37.28
73509;SHT30;61750;55.036;73.312;2022-09-09T08:17:12;20.16;37.03
73509;SHT30;61750;55.036;73.312;2022-09-09T08:19:38;20.08;35.92
73509;SHT30;61750;55.036;73.312;2022-09-09T08:22:11;20.08;35.55
73509;SHT30;61750;55.036;73.312;2022-09-09T08:24:39;20.16;35.40
73509;SHT30;61750;55.036;73.312;2022-09-09T08:27:12;20.12;35.68
73509;SHT30;61750;55.036;73.312;2022-09-09T08:29:39;20.15;36.06
73509;SHT30;61750;55.036;73.312;2022-09-09T08:32:16;19.89;35.09
73509;SHT30;61750;55.036;73.312;2022-09-09T08:34:46;19.75;35.56
73509;SHT30;61750;55.036;73.312;2022-09-09T08:37:15;19.62;35.79
73509;SHT30;61750;55.036;73.312;2022-09-09T08:39:43;19.47;36.43
73509;SHT30;61750;55.036;73.312;2022-09-09T08:42:30;19.43;37.10
73509;SHT30;61750;55.036;73.312;2022-09-09T08:45:14;19.43;37.39
73509;SHT30;61750;55.036;73.312;2022-09-09T08:50:38;19.92;37.34
73509;SHT30;61750;55.036;73.312;2022-09-09T08:53:19;20.30;35.20
73509;SHT30;61750;55.036;73.312;2022-09-09T08:55:57;20.36;35.59
73509;SHT30;61750;55.036;73.312;2022-09-09T08:58:49;20.33;36.81
73509;SHT30;61750;55.036;73.312;2022-09-09T09:04:52;20.02;37.15
73509;SHT30;61750;55.036;73.312;2022-09-09T09:07:35;20.01;37.31
73509;SHT30;61750;55.036;73.312;2022-09-09T09:10:39;20.19;35.87
73509;SHT30;61750;55.036;73.312;2022-09-09T09:13:20;20.63;35.33
73509;SHT30;61750;55.036;73.312;2022-09-09T09:16:00;20.37;31.39
73509;SHT30;61750;55.036;73.312;2022-09-09T09:18:28;20.25;31.72
73509;SHT30;61750;55.036;73.312;2022-09-09T09:21:13;20.21;33.44
73509;SHT30;61750;55.036;73.312;2022-09-09T09:24:06;20.29;33.18
73509;SHT30;61750;55.036;73.312;2022-09-09T09:26:35;20.53;33.48
73509;SHT30;61750;55.036;73.312;2022-09-09T09:29:25;21.10;31.78
73509;SHT30;61750;55.036;73.312;2022-09-09T09:31:54;21.12;30.86
73509;SHT30;61750;55.036;73.312;2022-09-09T09:34:24;20.94;31.07
73509;SHT30;61750;55.036;73.312;2022-09-09T09:36:54;20.79;31.74
73509;SHT30;61750;55.036;73.312;2022-09-09T09:39:28;20.62;32.24
73509;SHT30;61750;55.036;73.312;2022-09-09T09:41:58;20.55;32.72
73509;SHT30;61750;55.036;73.312;2022-09-09T09:44:33;20.45;32.93
73509;SHT30;61750;55.036;73.312;2022-09-09T09:47:19;20.13;32.33
73509;SHT30;61750;55.036;73.312;2022-09-09T09:50:04;19.89;33.35
73509;SHT30;61750;55.036;73.312;2022-09-09T09:52:36;19.79;33.28
73509;SHT30;61750;55.036;73.312;2022-09-09T09:55:12;19.70;33.19
73509;SHT30;61750;55.036;73.312;2022-09-09T09:57:40;19.67;33.53
73509;SHT30;61750;55.036;73.312;2022-09-09T10:00:17;19.58;33.71
73509;SHT30;61750;55.036;73.312;2022-09-09T10:02:51;19.57;34.15
73509;SHT30;61750;55.036;73.312;2022-09-09T10:05:28;19.43;34.42
73509;SHT30;61750;55.036;73.312;2022-09-09T10:13:53;19.27;36.03
73509;SHT30;61750;55.036;73.312;2022-09-09T10:16:39;19.30;35.83
73509;SHT30;61750;55.036;73.312;2022-09-09T10:19:31;19.34;35.18
73509;SHT30;61750;55.036;73.312;2022-09-09T10:22:23;19.40;34.14
73509;SHT30;61750;55.036;73.312;2022-09-09T10:25:20;19.47;35.58
73509;SHT30;61750;55.036;73.312;2022-09-09T10:28:00;19.60;35.45
73509;SHT30;61750;55.036;73.312;2022-09-09T10:33:37;19.96;34.46
73509;SHT30;61750;55.036;73.312;2022-09-09T10:36:24;20.18;34.66
73509;SHT30;61750;55.036;73.312;2022-09-09T10:39:33;20.32;32.87
73509;SHT30;61750;55.036;73.312;2022-09-09T10:42:12;20.47;33.47
73509;SHT30;61750;55.036;73.312;2022-09-09T10:45:18;21.31;32.75
73509;SHT30;61750;55.036;73.312;2022-09-09T10:48:03;21.65;32.02
73509;SHT30;61750;55.036;73.312;2022-09-09T10:56:26;22.59;30.68
73509;SHT30;61750;55.036;73.312;2022-09-09T10:59:28;23.48;29.39
73509;SHT30;61750;55.036;73.312;2022-09-09T11:02:27;24.15;30.05
73509;SHT30;61750;55.036;73.312;2022-09-09T11:05:19;23.79;29.68
73509;SHT30;61750;55.036;73.312;2022-09-09T11:08:05;23.15;29.92
73509;SHT30;61750;55.036;73.312;2022-09-09T11:10:49;22.15;31.64
73509;SHT30;61750;55.036;73.312;2022-09-09T11:13:24;21.32;32.88
73509;SHT30;61750;55.036;73.312;2022-09-09T11:15:58;20.87;33.91
73509;SHT30;61750;55.036;73.312;2022-09-09T11:18:29;21.12;33.52
73509;SHT30;61750;55.036;73.312;2022-09-09T11:21:16;20.90;34.03
73509;SHT30;61750;55.036;73.312;2022-09-09T11:24:29;20.70;33.97
73509;SHT30;61750;55.036;73.312;2022-09-09T11:38:18;21.89;33.30
73509;SHT30;61750;55.036;73.312;2022-09-09T11:40:45;21.81;33.05
73509;SHT30;61750;55.036;73.312;2022-09-09T11:43:16;21.66;33.19
73509;SHT30;61750;55.036;73.312;2022-09-09T11:45:51;21.37;32.83
73509;SHT30;61750;55.036;73.312;2022-09-09T11:51:12;20.81;32.05
73509;SHT30;61750;55.036;73.312;2022-09-09T11:53:52;20.73;32.03
73509;SHT30;61750;55.036;73.312;2022-09-09T11:56:32;20.46;32.09
73509;SHT30;61750;55.036;73.312;2022-09-09T11:59:29;20.26;33.29
73509;SHT30;61750;55.036;73.312;2022-09-09T12:02:13;20.50;32.10
73509;SHT30;61750;55.036;73.312;2022-09-09T12:05:04;20.40;32.39
73509;SHT30;61750;55.036;73.312;2022-09-09T12:08:08;20.35;33.61
73509;SHT30;61750;55.036;73.312;2022-09-09T12:10:39;20.12;32.46
73509;SHT30;61750;55.036;73.312;2022-09-09T12:13:15;19.89;33.38
73509;SHT30;61750;55.036;73.312;2022-09-09T12:15:50;19.67;33.84
73509;SHT30;61750;55.036;73.312;2022-09-09T12:24:33;19.58;34.51
73509;SHT30;61750;55.036;73.312;2022-09-09T12:32:25;20.18;33.98
73509;SHT30;61750;55.036;73.312;2022-09-09T12:37:50;20.01;34.41
73509;SHT30;61750;55.036;73.312;2022-09-09T12:40:25;20.96;32.30
73509;SHT30;61750;55.036;73.312;2022-09-09T12:42:52;21.54;32.24
73509;SHT30;61750;55.036;73.312;2022-09-09T12:45:20;21.41;32.26
73509;SHT30;61750;55.036;73.312;2022-09-09T12:47:51;21.37;32.69
73509;SHT30;61750;55.036;73.312;2022-09-09T12:50:38;21.89;32.04
73509;SHT30;61750;55.036;73.312;2022-09-09T12:53:12;22.23;31.58
73509;SHT30;61750;55.036;73.312;2022-09-09T12:55:51;22.17;31.55
73509;SHT30;61750;55.036;73.312;2022-09-09T12:58:18;22.04;31.80
73509;SHT30;61750;55.036;73.312;2022-09-09T13:00:54;22.10;32.93
73509;SHT30;61750;55.036;73.312;2022-09-09T13:03:23;21.52;32.69
73509;SHT30;61750;55.036;73.312;2022-09-09T13:05:51;20.67;34.37
73509;SHT30;61750;55.036;73.312;2022-09-09T13:08:29;19.98;35.94
73509;SHT30;61750;55.036;73.312;2022-09-09T13:11:04;19.31;36.73
73509;SHT30;61750;55.036;73.312;2022-09-09T13:13:40;18.82;38.16
73509;SHT30;61750;55.036;73.312;2022-09-09T13:16:28;18.31;38.89
73509;SHT30;61750;55.036;73.312;2022-09-09T13:19:25;17.82;40.26
73509;SHT30;61750;55.036;73.312;2022-09-09T13:21:53;17.53;41.26
73509;SHT30;61750;55.036;73.312;2022-09-09T13:24:28;17.24;41.87
73509;SHT30;61750;55.036;73.312;2022-09-09T13:27:34;16.97;42.50
73509;SHT30;61750;55.036;73.312;2022-09-09T13:30:27;16.73;43.02
73509;SHT30;61750;55.036;73.312;2022-09-09T13:33:21;16.55;43.08
73509;SHT30;61750;55.036;73.312;2022-09-09T13:38:40;16.26;44.28
73509;SHT30;61750;55.036;73.312;2022-09-09T13:41:23;16.10;44.84
73509;SHT30;61750;55.036;73.312;2022-09-09T13:43:58;15.87;45.43
73509;SHT30;61750;55.036;73.312;2022-09-09T13:46:36;15.73;45.26
73509;SHT30;61750;55.036;73.312;2022-09-09T13:49:28;15.58;45.84
73509;SHT30;61750;55.036;73.312;2022-09-09T13:52:30;15.46;45.98
73509;SHT30;61750;55.036;73.312;2022-09-09T13:54:57;15.39;46.25
73509;SHT30;61750;55.036;73.312;2022-09-09T13:57:26;15.32;46.44
73509;SHT30;61750;55.036;73.312;2022-09-09T13:59:53;15.20;46.98
73509;SHT30;61750;55.036;73.312;2022-09-09T14:02:28;15.06;47.78
73509;SHT30;61750;55.036;73.312;2022-09-09T14:04:54;14.89;48.11
73509;SHT30;61750;55.036;73.312;2022-09-09T14:07:25;14.65;48.80
73509;SHT30;61750;55.036;73.312;2022-09-09T14:09:51;14.55;49.29
73509;SHT30;61750;55.036;73.312;2022-09-09T14:12:23;14.44;49.39
73509;SHT30;61750;55.036;73.312;2022-09-09T14:14:54;14.31;49.86
73509;SHT30;61750;55.036;73.312;2022-09-09T14:17:21;14.20;50.08
73509;SHT30;61750;55.036;73.312;2022-09-09T14:19:58;14.06;50.80
73509;SHT30;61750;55.036;73.312;2022-09-09T14:22:28;13.98;51.02
73509;SHT30;61750;55.036;73.312;2022-09-09T14:24:54;13.87;51.03
73509;SHT30;61750;55.036;73.312;2022-09-09T14:27:21;13.76;52.37
73509;SHT30;61750;55.036;73.312;2022-09-09T14:29:47;13.57;52.86
73509;SHT30;61750;55.036;73.312;2022-09-09T14:32:13;13.47;53.22
73509;SHT30;61750;55.036;73.312;2022-09-09T14:34:49;13.39;53.65
73509;SHT30;61750;55.036;73.312;2022-09-09T14:37:18;13.19;54.27
73509;SHT30;61750;55.036;73.312;2022-09-09T14:39:44;13.03;55.09
73509;SHT30;61750;55.036;73.312;2022-09-09T14:42:22;12.93;55.66
73509;SHT30;61750;55.036;73.312;2022-09-09T14:44:49;12.78;56.32
73509;SHT30;61750;55.036;73.312;2022-09-09T14:47:15;12.58;57.51
73509;SHT30;61750;55.036;73.312;2022-09-09T14:49:41;12.44;58.26
73509;SHT30;61750;55.036;73.312;2022-09-09T14:52:07;12.27;58.50
73509;SHT30;61750;55.036;73.312;2022-09-09T14:54:34;12.12;59.08
73509;SHT30;61750;55.036;73.312;2022-09-09T14:57:01;11.94;59.94
73509;SHT30;61750;55.036;73.312;2022-09-09T14:59:28;11.72;60.56
